Degray, Arkansas
Current Conditions -  °F | °C
As of 1:56 PM on Friday 28 Nov 2014 (Local Time) from KADF Reporting Station
Clear Clear  
Wind Chill: 62°   Ceiling: Unl
Heat Index: 62°   Visibility: 10mi
Dew Point: 39°   Wind: 10mph
Humidity: 43%   Direction: 190°S
Pressure: 30.16"   Gusts: NA
Location:  34.0941°N, 93.0475°W
Report Text: KADF 281956Z AUTO 19009KT 10SM CLR 17/04 A3016 RMK AO2 T01660038 SLP229
Loading
Personal Weather Stations






























Interactive Weather Map New forecast layout! Learn more

10-Day Weather Forecast

Advertisements
Track Severe Weather on mobile